sensor_id;sensor_type;location;lat;lon;timestamp;temperature;humidity
13976;DHT22;7062;49.792;9.946;2023-01-19T00:01:24;-1.00;99.90
13976;DHT22;7062;49.792;9.946;2023-01-19T00:03:50;-1.00;99.90
13976;DHT22;7062;49.792;9.946;2023-01-19T00:06:16;-1.00;99.90
13976;DHT22;7062;49.792;9.946;2023-01-19T00:08:42;-0.80;99.90
13976;DHT22;7062;49.792;9.946;2023-01-19T00:11:13;-0.90;99.90
13976;DHT22;7062;49.792;9.946;2023-01-19T00:13:39;-0.90;99.90
13976;DHT22;7062;49.792;9.946;2023-01-19T00:16:08;-1.00;99.90
13976;DHT22;7062;49.792;9.946;2023-01-19T00:18:33;-0.80;99.90
13976;DHT22;7062;49.792;9.946;2023-01-19T00:20:59;-0.90;99.90
13976;DHT22;7062;49.792;9.946;2023-01-19T00:23:24;-0.80;99.90
13976;DHT22;7062;49.792;9.946;2023-01-19T00:25:50;-1.00;99.90
13976;DHT22;7062;49.792;9.946;2023-01-19T00:28:17;-0.90;99.90
13976;DHT22;7062;49.792;9.946;2023-01-19T00:30:43;-1.00;99.90
13976;DHT22;7062;49.792;9.946;2023-01-19T00:33:09;-1.10;99.90
13976;DHT22;7062;49.792;9.946;2023-01-19T00:35:35;-1.10;99.90
13976;DHT22;7062;49.792;9.946;2023-01-19T00:38:01;-1.20;99.90
13976;DHT22;7062;49.792;9.946;2023-01-19T00:40:27;-1.20;99.90
13976;DHT22;7062;49.792;9.946;2023-01-19T00:42:53;-1.10;99.90
13976;DHT22;7062;49.792;9.946;2023-01-19T00:45:21;-1.10;99.90
13976;DHT22;7062;49.792;9.946;2023-01-19T00:47:48;-1.20;99.90
13976;DHT22;7062;49.792;9.946;2023-01-19T00:50:19;-1.30;99.90
13976;DHT22;7062;49.792;9.946;2023-01-19T00:52:45;-1.30;99.90
13976;DHT22;7062;49.792;9.946;2023-01-19T00:55:12;-1.30;99.90
13976;DHT22;7062;49.792;9.946;2023-01-19T00:57:39;-1.30;99.90
13976;DHT22;7062;49.792;9.946;2023-01-19T01:00:07;-1.40;99.90
13976;DHT22;7062;49.792;9.946;2023-01-19T01:02:34;-1.30;99.90
13976;DHT22;7062;49.792;9.946;2023-01-19T01:05:01;-1.40;99.90
13976;DHT22;7062;49.792;9.946;2023-01-19T01:07:28;-1.50;99.90
13976;DHT22;7062;49.792;9.946;2023-01-19T01:09:54;-1.50;99.90
13976;DHT22;7062;49.792;9.946;2023-01-19T01:12:23;-1.50;99.90
13976;DHT22;7062;49.792;9.946;2023-01-19T01:14:48;-1.50;99.90
13976;DHT22;7062;49.792;9.946;2023-01-19T01:17:14;-1.50;99.90
13976;DHT22;7062;49.792;9.946;2023-01-19T01:19:40;-1.50;99.90
13976;DHT22;7062;49.792;9.946;2023-01-19T01:22:09;-1.50;99.90
13976;DHT22;7062;49.792;9.946;2023-01-19T01:24:35;-1.50;99.90
13976;DHT22;7062;49.792;9.946;2023-01-19T01:27:00;-1.40;99.90
13976;DHT22;7062;49.792;9.946;2023-01-19T01:29:26;-1.50;99.90
13976;DHT22;7062;49.792;9.946;2023-01-19T01:31:52;-1.50;99.90
13976;DHT22;7062;49.792;9.946;2023-01-19T01:34:18;-1.60;99.90
13976;DHT22;7062;49.792;9.946;2023-01-19T01:36:43;-1.60;99.90
13976;DHT22;7062;49.792;9.946;2023-01-19T01:39:09;-1.60;99.90
13976;DHT22;7062;49.792;9.946;2023-01-19T01:41:35;-1.70;99.90
13976;DHT22;7062;49.792;9.946;2023-01-19T01:44:00;-1.60;99.90
13976;DHT22;7062;49.792;9.946;2023-01-19T01:46:29;-1.60;99.90
13976;DHT22;7062;49.792;9.946;2023-01-19T01:49:12;-1.60;99.90
13976;DHT22;7062;49.792;9.946;2023-01-19T01:54:25;-1.60;99.90
13976;DHT22;7062;49.792;9.946;2023-01-19T01:56:53;-1.60;99.90
13976;DHT22;7062;49.792;9.946;2023-01-19T01:59:31;-1.60;99.90
13976;DHT22;7062;49.792;9.946;2023-01-19T02:02:20;-1.70;99.90
13976;DHT22;7062;49.792;9.946;2023-01-19T02:05:15;-1.70;99.90
13976;DHT22;7062;49.792;9.946;2023-01-19T02:07:52;-1.70;99.90
13976;DHT22;7062;49.792;9.946;2023-01-19T02:10:39;-1.80;99.90
13976;DHT22;7062;49.792;9.946;2023-01-19T02:13:23;-1.80;99.90
13976;DHT22;7062;49.792;9.946;2023-01-19T02:15:54;-1.70;99.90
13976;DHT22;7062;49.792;9.946;2023-01-19T02:18:22;-1.80;99.90
13976;DHT22;7062;49.792;9.946;2023-01-19T02:23:43;-1.80;99.90
13976;DHT22;7062;49.792;9.946;2023-01-19T02:26:14;-1.70;99.90
13976;DHT22;7062;49.792;9.946;2023-01-19T02:28:45;-1.70;99.90
13976;DHT22;7062;49.792;9.946;2023-01-19T02:31:12;-1.80;99.90
13976;DHT22;7062;49.792;9.946;2023-01-19T02:33:40;-1.70;99.90
13976;DHT22;7062;49.792;9.946;2023-01-19T02:36:07;-1.70;99.90
13976;DHT22;7062;49.792;9.946;2023-01-19T02:38:35;-1.70;99.90
13976;DHT22;7062;49.792;9.946;2023-01-19T02:41:04;-1.70;99.90
13976;DHT22;7062;49.792;9.946;2023-01-19T02:43:31;-1.80;99.90
13976;DHT22;7062;49.792;9.946;2023-01-19T02:45:57;-1.90;99.90
13976;DHT22;7062;49.792;9.946;2023-01-19T02:48:23;-2.00;99.90
13976;DHT22;7062;49.792;9.946;2023-01-19T02:50:55;-1.90;99.90
13976;DHT22;7062;49.792;9.946;2023-01-19T02:53:32;-1.90;99.90
13976;DHT22;7062;49.792;9.946;2023-01-19T03:04:14;-1.90;99.90
13976;DHT22;7062;49.792;9.946;2023-01-19T03:06:52;-1.90;99.90
13976;DHT22;7062;49.792;9.946;2023-01-19T03:09:31;-1.90;99.90
13976;DHT22;7062;49.792;9.946;2023-01-19T03:12:14;-1.90;99.90
13976;DHT22;7062;49.792;9.946;2023-01-19T03:14:47;-1.80;99.90
13976;DHT22;7062;49.792;9.946;2023-01-19T03:17:16;-1.70;99.90
13976;DHT22;7062;49.792;9.946;2023-01-19T03:19:43;-1.60;99.90
13976;DHT22;7062;49.792;9.946;2023-01-19T03:22:14;-1.60;99.90
13976;DHT22;7062;49.792;9.946;2023-01-19T03:24:44;-1.70;99.90
13976;DHT22;7062;49.792;9.946;2023-01-19T03:27:13;-1.60;99.90
13976;DHT22;7062;49.792;9.946;2023-01-19T03:29:43;-1.70;99.90
13976;DHT22;7062;49.792;9.946;2023-01-19T03:32:15;-1.70;99.90
13976;DHT22;7062;49.792;9.946;2023-01-19T03:34:43;-1.60;99.90
13976;DHT22;7062;49.792;9.946;2023-01-19T03:37:10;-1.60;99.90
13976;DHT22;7062;49.792;9.946;2023-01-19T03:39:37;-1.60;99.90
13976;DHT22;7062;49.792;9.946;2023-01-19T03:42:10;-1.60;99.90
13976;DHT22;7062;49.792;9.946;2023-01-19T03:44:38;-1.60;99.90
13976;DHT22;7062;49.792;9.946;2023-01-19T03:47:06;-1.70;99.90
13976;DHT22;7062;49.792;9.946;2023-01-19T03:49:33;-1.80;99.90
13976;DHT22;7062;49.792;9.946;2023-01-19T03:52:00;-2.00;99.90
13976;DHT22;7062;49.792;9.946;2023-01-19T03:54:26;-2.00;99.90
13976;DHT22;7062;49.792;9.946;2023-01-19T03:56:52;-2.00;99.90
13976;DHT22;7062;49.792;9.946;2023-01-19T03:59:18;-2.00;99.90
13976;DHT22;7062;49.792;9.946;2023-01-19T04:01:46;-1.90;99.90
13976;DHT22;7062;49.792;9.946;2023-01-19T04:04:11;-1.90;99.90
13976;DHT22;7062;49.792;9.946;2023-01-19T04:06:41;-1.90;99.90
13976;DHT22;7062;49.792;9.946;2023-01-19T04:09:07;-1.80;99.90
13976;DHT22;7062;49.792;9.946;2023-01-19T04:11:33;-1.80;99.90
13976;DHT22;7062;49.792;9.946;2023-01-19T04:13:58;-1.70;99.90
13976;DHT22;7062;49.792;9.946;2023-01-19T04:16:24;-1.80;99.90
13976;DHT22;7062;49.792;9.946;2023-01-19T04:18:50;-1.70;99.90
13976;DHT22;7062;49.792;9.946;2023-01-19T04:21:17;-1.70;99.90
13976;DHT22;7062;49.792;9.946;2023-01-19T04:23:42;-1.60;99.90
13976;DHT22;7062;49.792;9.946;2023-01-19T04:26:10;-1.60;99.90
13976;DHT22;7062;49.792;9.946;2023-01-19T04:28:36;-1.80;99.90
13976;DHT22;7062;49.792;9.946;2023-01-19T04:31:03;-1.90;99.90
13976;DHT22;7062;49.792;9.946;2023-01-19T04:33:29;-1.90;99.90
13976;DHT22;7062;49.792;9.946;2023-01-19T04:35:54;-1.80;99.90
13976;DHT22;7062;49.792;9.946;2023-01-19T04:38:21;-1.80;99.90
13976;DHT22;7062;49.792;9.946;2023-01-19T04:40:50;-1.70;99.90
13976;DHT22;7062;49.792;9.946;2023-01-19T04:43:17;-1.70;99.90
13976;DHT22;7062;49.792;9.946;2023-01-19T04:45:44;-1.70;99.90
13976;DHT22;7062;49.792;9.946;2023-01-19T04:48:10;-1.80;99.90
13976;DHT22;7062;49.792;9.946;2023-01-19T04:50:36;-1.70;99.90
13976;DHT22;7062;49.792;9.946;2023-01-19T04:53:02;-1.70;99.90
13976;DHT22;7062;49.792;9.946;2023-01-19T04:55:28;-1.90;99.90
13976;DHT22;7062;49.792;9.946;2023-01-19T04:57:53;-1.70;99.90
13976;DHT22;7062;49.792;9.946;2023-01-19T05:00:19;-1.70;99.90
13976;DHT22;7062;49.792;9.946;2023-01-19T05:02:45;-1.50;99.90
13976;DHT22;7062;49.792;9.946;2023-01-19T05:05:11;-1.50;99.90
13976;DHT22;7062;49.792;9.946;2023-01-19T05:07:37;-1.40;99.90
13976;DHT22;7062;49.792;9.946;2023-01-19T05:10:04;-1.30;99.90
13976;DHT22;7062;49.792;9.946;2023-01-19T05:12:29;-1.20;99.90
13976;DHT22;7062;49.792;9.946;2023-01-19T05:14:55;-1.20;99.90
13976;DHT22;7062;49.792;9.946;2023-01-19T05:17:22;-1.20;99.90
13976;DHT22;7062;49.792;9.946;2023-01-19T05:19:47;-1.20;99.90
13976;DHT22;7062;49.792;9.946;2023-01-19T05:22:13;-1.10;99.90
13976;DHT22;7062;49.792;9.946;2023-01-19T05:24:39;-1.10;99.90
13976;DHT22;7062;49.792;9.946;2023-01-19T05:27:05;-1.20;99.90
13976;DHT22;7062;49.792;9.946;2023-01-19T05:29:31;-1.20;99.90
13976;DHT22;7062;49.792;9.946;2023-01-19T05:31:56;-1.10;99.90
13976;DHT22;7062;49.792;9.946;2023-01-19T05:34:22;-1.10;99.90
13976;DHT22;7062;49.792;9.946;2023-01-19T05:36:48;-1.20;99.90
13976;DHT22;7062;49.792;9.946;2023-01-19T05:39:14;-1.30;99.90
13976;DHT22;7062;49.792;9.946;2023-01-19T05:41:39;-1.40;99.90
13976;DHT22;7062;49.792;9.946;2023-01-19T05:44:06;-1.40;99.90
13976;DHT22;7062;49.792;9.946;2023-01-19T05:46:32;-1.50;99.90
13976;DHT22;7062;49.792;9.946;2023-01-19T05:48:59;-1.50;99.90
13976;DHT22;7062;49.792;9.946;2023-01-19T05:51:28;-1.40;99.90
13976;DHT22;7062;49.792;9.946;2023-01-19T05:54:00;-1.50;99.90
13976;DHT22;7062;49.792;9.946;2023-01-19T05:56:26;-1.50;99.90
13976;DHT22;7062;49.792;9.946;2023-01-19T05:58:51;-1.40;99.90
13976;DHT22;7062;49.792;9.946;2023-01-19T06:01:17;-1.40;99.90
13976;DHT22;7062;49.792;9.946;2023-01-19T06:03:43;-1.40;99.90
13976;DHT22;7062;49.792;9.946;2023-01-19T06:06:08;-1.30;99.90
13976;DHT22;7062;49.792;9.946;2023-01-19T06:08:34;-1.30;99.90
13976;DHT22;7062;49.792;9.946;2023-01-19T06:11:00;-1.40;99.90
13976;DHT22;7062;49.792;9.946;2023-01-19T06:13:26;-1.40;99.90
13976;DHT22;7062;49.792;9.946;2023-01-19T06:16:01;-1.50;99.90
13976;DHT22;7062;49.792;9.946;2023-01-19T06:18:27;-1.50;99.90
13976;DHT22;7062;49.792;9.946;2023-01-19T06:20:53;-1.60;99.90
13976;DHT22;7062;49.792;9.946;2023-01-19T06:23:26;-1.50;99.90
13976;DHT22;7062;49.792;9.946;2023-01-19T06:25:53;-1.50;99.90
13976;DHT22;7062;49.792;9.946;2023-01-19T06:28:19;-1.40;99.90
13976;DHT22;7062;49.792;9.946;2023-01-19T06:30:49;-1.50;99.90
13976;DHT22;7062;49.792;9.946;2023-01-19T06:33:15;-1.30;99.90
13976;DHT22;7062;49.792;9.946;2023-01-19T06:35:45;-1.50;99.90
13976;DHT22;7062;49.792;9.946;2023-01-19T06:38:10;-1.50;99.90
13976;DHT22;7062;49.792;9.946;2023-01-19T06:40:40;-1.60;99.90
13976;DHT22;7062;49.792;9.946;2023-01-19T06:43:07;-1.60;99.90
13976;DHT22;7062;49.792;9.946;2023-01-19T06:45:33;-1.70;99.90
13976;DHT22;7062;49.792;9.946;2023-01-19T06:47:59;-1.60;99.90
13976;DHT22;7062;49.792;9.946;2023-01-19T06:50:25;-1.50;99.90
13976;DHT22;7062;49.792;9.946;2023-01-19T06:52:51;-1.40;99.90
13976;DHT22;7062;49.792;9.946;2023-01-19T06:55:17;-1.40;99.90
13976;DHT22;7062;49.792;9.946;2023-01-19T06:57:43;-1.40;99.90
13976;DHT22;7062;49.792;9.946;2023-01-19T07:00:11;-1.40;99.90
13976;DHT22;7062;49.792;9.946;2023-01-19T07:02:40;-1.40;99.90
13976;DHT22;7062;49.792;9.946;2023-01-19T07:05:07;-1.50;99.90
13976;DHT22;7062;49.792;9.946;2023-01-19T07:07:34;-1.30;99.90
13976;DHT22;7062;49.792;9.946;2023-01-19T07:09:59;-1.30;99.90
13976;DHT22;7062;49.792;9.946;2023-01-19T07:12:25;-1.30;99.90
13976;DHT22;7062;49.792;9.946;2023-01-19T07:14:51;-1.30;99.90
13976;DHT22;7062;49.792;9.946;2023-01-19T07:17:17;-1.10;99.90
13976;DHT22;7062;49.792;9.946;2023-01-19T07:19:43;-1.20;99.90
13976;DHT22;7062;49.792;9.946;2023-01-19T07:22:08;-1.10;99.90
13976;DHT22;7062;49.792;9.946;2023-01-19T07:24:34;-1.00;99.90
13976;DHT22;7062;49.792;9.946;2023-01-19T07:27:00;-1.00;99.90
13976;DHT22;7062;49.792;9.946;2023-01-19T07:29:25;-0.80;99.90
13976;DHT22;7062;49.792;9.946;2023-01-19T07:31:51;-0.80;99.90
13976;DHT22;7062;49.792;9.946;2023-01-19T07:34:19;-0.70;99.90
13976;DHT22;7062;49.792;9.946;2023-01-19T07:36:45;-0.70;99.90
13976;DHT22;7062;49.792;9.946;2023-01-19T07:39:11;-0.70;99.90
13976;DHT22;7062;49.792;9.946;2023-01-19T07:41:36;-0.70;99.90
13976;DHT22;7062;49.792;9.946;2023-01-19T07:44:02;-0.70;99.90
13976;DHT22;7062;49.792;9.946;2023-01-19T07:46:28;-0.90;99.90
13976;DHT22;7062;49.792;9.946;2023-01-19T07:48:53;-0.80;99.90
13976;DHT22;7062;49.792;9.946;2023-01-19T07:51:19;-0.80;99.90
13976;DHT22;7062;49.792;9.946;2023-01-19T07:53:45;-0.70;99.90
13976;DHT22;7062;49.792;9.946;2023-01-19T07:56:11;-0.60;99.90
13976;DHT22;7062;49.792;9.946;2023-01-19T07:58:37;-0.50;99.90
13976;DHT22;7062;49.792;9.946;2023-01-19T08:01:11;-0.50;99.90
13976;DHT22;7062;49.792;9.946;2023-01-19T08:03:37;-0.40;99.90
13976;DHT22;7062;49.792;9.946;2023-01-19T08:06:03;-0.30;99.90
13976;DHT22;7062;49.792;9.946;2023-01-19T08:08:32;-0.30;99.90
13976;DHT22;7062;49.792;9.946;2023-01-19T08:10:58;-0.30;99.90
13976;DHT22;7062;49.792;9.946;2023-01-19T08:13:24;-0.30;99.90
13976;DHT22;7062;49.792;9.946;2023-01-19T08:15:51;-0.40;99.90
13976;DHT22;7062;49.792;9.946;2023-01-19T08:18:17;-0.30;99.90
13976;DHT22;7062;49.792;9.946;2023-01-19T08:20:44;-0.20;99.90
13976;DHT22;7062;49.792;9.946;2023-01-19T08:23:10;-0.20;99.90
13976;DHT22;7062;49.792;9.946;2023-01-19T08:25:37;-0.10;99.90
13976;DHT22;7062;49.792;9.946;2023-01-19T08:28:04;-0.10;99.90
13976;DHT22;7062;49.792;9.946;2023-01-19T08:30:31;0.00;99.90
13976;DHT22;7062;49.792;9.946;2023-01-19T08:32:57;0.10;99.90
13976;DHT22;7062;49.792;9.946;2023-01-19T08:35:30;0.10;99.90
13976;DHT22;7062;49.792;9.946;2023-01-19T08:37:56;0.10;99.90
13976;DHT22;7062;49.792;9.946;2023-01-19T08:40:28;0.30;99.90
13976;DHT22;7062;49.792;9.946;2023-01-19T08:42:58;0.40;99.90
13976;DHT22;7062;49.792;9.946;2023-01-19T08:45:33;0.50;99.90
13976;DHT22;7062;49.792;9.946;2023-01-19T08:47:59;0.60;99.90
13976;DHT22;7062;49.792;9.946;2023-01-19T08:50:26;0.60;99.90
13976;DHT22;7062;49.792;9.946;2023-01-19T08:52:55;0.60;99.90
13976;DHT22;7062;49.792;9.946;2023-01-19T08:55:22;0.80;99.90
13976;DHT22;7062;49.792;9.946;2023-01-19T08:57:51;1.00;99.90
13976;DHT22;7062;49.792;9.946;2023-01-19T09:00:18;1.20;99.90
13976;DHT22;7062;49.792;9.946;2023-01-19T09:02:45;1.30;99.90
13976;DHT22;7062;49.792;9.946;2023-01-19T09:05:11;1.60;99.90
13976;DHT22;7062;49.792;9.946;2023-01-19T09:07:36;1.60;99.90
13976;DHT22;7062;49.792;9.946;2023-01-19T09:10:04;1.60;99.90
13976;DHT22;7062;49.792;9.946;2023-01-19T09:12:30;1.60;99.90
13976;DHT22;7062;49.792;9.946;2023-01-19T09:14:55;1.60;99.90
13976;DHT22;7062;49.792;9.946;2023-01-19T09:17:21;1.50;99.90
13976;DHT22;7062;49.792;9.946;2023-01-19T09:19:47;1.40;99.90
13976;DHT22;7062;49.792;9.946;2023-01-19T09:22:12;1.40;99.90
13976;DHT22;7062;49.792;9.946;2023-01-19T09:24:38;1.50;99.90
13976;DHT22;7062;49.792;9.946;2023-01-19T09:27:04;1.70;99.90
13976;DHT22;7062;49.792;9.946;2023-01-19T09:29:29;1.70;99.90
13976;DHT22;7062;49.792;9.946;2023-01-19T09:31:55;1.70;99.90
13976;DHT22;7062;49.792;9.946;2023-01-19T09:34:22;1.70;99.90
13976;DHT22;7062;49.792;9.946;2023-01-19T09:36:50;1.80;99.90
13976;DHT22;7062;49.792;9.946;2023-01-19T09:39:16;1.80;99.90
13976;DHT22;7062;49.792;9.946;2023-01-19T09:41:55;1.80;99.90
13976;DHT22;7062;49.792;9.946;2023-01-19T09:44:29;1.80;99.90
13976;DHT22;7062;49.792;9.946;2023-01-19T09:46:55;1.70;99.90
13976;DHT22;7062;49.792;9.946;2023-01-19T09:49:32;1.90;99.90
13976;DHT22;7062;49.792;9.946;2023-01-19T09:51:59;2.00;99.90
13976;DHT22;7062;49.792;9.946;2023-01-19T09:56:52;2.00;99.90
13976;DHT22;7062;49.792;9.946;2023-01-19T09:59:20;1.90;99.90
13976;DHT22;7062;49.792;9.946;2023-01-19T10:07:25;1.90;99.90
13976;DHT22;7062;49.792;9.946;2023-01-19T10:10:25;1.90;99.90
13976;DHT22;7062;49.792;9.946;2023-01-19T10:20:49;2.00;99.90
13976;DHT22;7062;49.792;9.946;2023-01-19T10:25:51;2.00;99.90
13976;DHT22;7062;49.792;9.946;2023-01-19T10:28:21;2.10;99.90
13976;DHT22;7062;49.792;9.946;2023-01-19T10:30:48;2.60;99.90
13976;DHT22;7062;49.792;9.946;2023-01-19T10:33:14;3.70;99.90
13976;DHT22;7062;49.792;9.946;2023-01-19T10:35:40;8.30;99.90
13976;DHT22;7062;49.792;9.946;2023-01-19T10:38:11;13.10;99.90
13976;DHT22;7062;49.792;9.946;2023-01-19T10:40:57;16.10;99.90
13976;DHT22;7062;49.792;9.946;2023-01-19T10:43:36;12.50;99.90
13976;DHT22;7062;49.792;9.946;2023-01-19T10:48:48;8.50;99.90
13976;DHT22;7062;49.792;9.946;2023-01-19T10:51:14;9.70;99.90
13976;DHT22;7062;49.792;9.946;2023-01-19T10:53:43;12.30;99.90
13976;DHT22;7062;49.792;9.946;2023-01-19T10:56:22;13.00;99.90
13976;DHT22;7062;49.792;9.946;2023-01-19T10:58:48;15.00;99.90
13976;DHT22;7062;49.792;9.946;2023-01-19T11:01:23;16.50;99.90
13976;DHT22;7062;49.792;9.946;2023-01-19T11:03:49;13.80;99.90
13976;DHT22;7062;49.792;9.946;2023-01-19T11:06:28;13.60;99.90
13976;DHT22;7062;49.792;9.946;2023-01-19T11:09:30;11.40;99.90
13976;DHT22;7062;49.792;9.946;2023-01-19T11:11:56;16.30;99.90
13976;DHT22;7062;49.792;9.946;2023-01-19T11:14:23;17.30;98.00
13976;DHT22;7062;49.792;9.946;2023-01-19T11:16:54;14.80;99.90
13976;DHT22;7062;49.792;9.946;2023-01-19T11:19:29;15.60;99.50
13976;DHT22;7062;49.792;9.946;2023-01-19T11:22:16;16.30;99.60
13976;DHT22;7062;49.792;9.946;2023-01-19T11:24:47;16.80;97.80
13976;DHT22;7062;49.792;9.946;2023-01-19T11:27:19;15.70;98.00
13976;DHT22;7062;49.792;9.946;2023-01-19T11:29:56;13.40;99.90
13976;DHT22;7062;49.792;9.946;2023-01-19T11:32:26;9.10;99.90
13976;DHT22;7062;49.792;9.946;2023-01-19T11:34:51;7.30;99.90
13976;DHT22;7062;49.792;9.946;2023-01-19T11:39:48;4.70;99.90
13976;DHT22;7062;49.792;9.946;2023-01-19T11:42:15;4.30;99.90
13976;DHT22;7062;49.792;9.946;2023-01-19T11:50:11;3.90;99.90
13976;DHT22;7062;49.792;9.946;2023-01-19T11:52:48;3.70;99.90
13976;DHT22;7062;49.792;9.946;2023-01-19T11:55:24;3.90;99.90
13976;DHT22;7062;49.792;9.946;2023-01-19T11:57:53;4.00;99.90
13976;DHT22;7062;49.792;9.946;2023-01-19T12:03:36;3.80;99.90
13976;DHT22;7062;49.792;9.946;2023-01-19T12:05:46;3.90;99.90
13976;DHT22;7062;49.792;9.946;2023-01-19T12:08:17;4.00;99.90
13976;DHT22;7062;49.792;9.946;2023-01-19T12:10:46;4.00;99.90
13976;DHT22;7062;49.792;9.946;2023-01-19T12:13:26;4.00;99.90
13976;DHT22;7062;49.792;9.946;2023-01-19T12:18:45;4.00;99.90
13976;DHT22;7062;49.792;9.946;2023-01-19T12:21:12;4.00;99.90
13976;DHT22;7062;49.792;9.946;2023-01-19T12:23:52;3.80;99.90
13976;DHT22;7062;49.792;9.946;2023-01-19T12:26:43;3.60;99.90
13976;DHT22;7062;49.792;9.946;2023-01-19T12:29:17;3.40;99.90
13976;DHT22;7062;49.792;9.946;2023-01-19T12:31:44;3.30;99.90
13976;DHT22;7062;49.792;9.946;2023-01-19T12:36:52;3.30;99.90
13976;DHT22;7062;49.792;9.946;2023-01-19T12:39:20;3.30;99.90
13976;DHT22;7062;49.792;9.946;2023-01-19T12:41:47;3.30;99.90
13976;DHT22;7062;49.792;9.946;2023-01-19T12:44:19;3.20;99.90
13976;DHT22;7062;49.792;9.946;2023-01-19T12:46:59;3.30;99.90
13976;DHT22;7062;49.792;9.946;2023-01-19T13:00:01;2.90;99.90
13976;DHT22;7062;49.792;9.946;2023-01-19T13:18:51;2.70;99.90
13976;DHT22;7062;49.792;9.946;2023-01-19T13:21:31;2.60;99.90
13976;DHT22;7062;49.792;9.946;2023-01-19T13:24:08;2.70;99.90
13976;DHT22;7062;49.792;9.946;2023-01-19T13:26:37;2.70;99.90
13976;DHT22;7062;49.792;9.946;2023-01-19T13:29:29;2.70;99.90
13976;DHT22;7062;49.792;9.946;2023-01-19T13:31:57;2.80;99.90
13976;DHT22;7062;49.792;9.946;2023-01-19T13:34:35;2.80;99.90
13976;DHT22;7062;49.792;9.946;2023-01-19T13:37:03;2.90;99.90
13976;DHT22;7062;49.792;9.946;2023-01-19T13:39:35;2.90;99.90
13976;DHT22;7062;49.792;9.946;2023-01-19T13:42:19;2.90;99.90
13976;DHT22;7062;49.792;9.946;2023-01-19T13:44:51;2.80;99.90
13976;DHT22;7062;49.792;9.946;2023-01-19T13:47:32;2.80;99.90
13976;DHT22;7062;49.792;9.946;2023-01-19T13:50:00;2.80;99.90
13976;DHT22;7062;49.792;9.946;2023-01-19T13:52:29;2.70;99.90
13976;DHT22;7062;49.792;9.946;2023-01-19T13:55:02;2.70;99.90
13976;DHT22;7062;49.792;9.946;2023-01-19T13:57:37;2.70;99.90
13976;DHT22;7062;49.792;9.946;2023-01-19T14:05:24;2.70;99.90
13976;DHT22;7062;49.792;9.946;2023-01-19T14:08:00;2.70;99.90
13976;DHT22;7062;49.792;9.946;2023-01-19T14:10:26;2.70;99.90
13976;DHT22;7062;49.792;9.946;2023-01-19T14:13:03;2.80;99.90
13976;DHT22;7062;49.792;9.946;2023-01-19T14:15:31;3.00;99.90
13976;DHT22;7062;49.792;9.946;2023-01-19T14:20:39;3.30;99.90
13976;DHT22;7062;49.792;9.946;2023-01-19T14:23:05;3.40;99.90
13976;DHT22;7062;49.792;9.946;2023-01-19T14:25:35;3.50;99.90
13976;DHT22;7062;49.792;9.946;2023-01-19T14:28:29;3.50;99.90
13976;DHT22;7062;49.792;9.946;2023-01-19T14:31:17;3.20;99.90
13976;DHT22;7062;49.792;9.946;2023-01-19T14:33:44;3.10;99.90
13976;DHT22;7062;49.792;9.946;2023-01-19T14:38:53;3.00;99.90
13976;DHT22;7062;49.792;9.946;2023-01-19T14:41:46;3.00;99.90
13976;DHT22;7062;49.792;9.946;2023-01-19T14:44:39;3.00;99.90
13976;DHT22;7062;49.792;9.946;2023-01-19T14:47:06;3.00;99.90
13976;DHT22;7062;49.792;9.946;2023-01-19T14:49:46;2.80;99.90
13976;DHT22;7062;49.792;9.946;2023-01-19T14:52:20;2.70;99.90
13976;DHT22;7062;49.792;9.946;2023-01-19T14:54:49;2.70;99.90
13976;DHT22;7062;49.792;9.946;2023-01-19T14:57:16;2.70;99.90
13976;DHT22;7062;49.792;9.946;2023-01-19T14:59:42;2.70;99.90
13976;DHT22;7062;49.792;9.946;2023-01-19T15:02:12;2.60;99.90
13976;DHT22;7062;49.792;9.946;2023-01-19T15:04:38;2.60;99.90
13976;DHT22;7062;49.792;9.946;2023-01-19T15:07:04;2.70;99.90
13976;DHT22;7062;49.792;9.946;2023-01-19T15:09:31;2.70;99.90
13976;DHT22;7062;49.792;9.946;2023-01-19T15:11:56;2.60;99.90
13976;DHT22;7062;49.792;9.946;2023-01-19T15:14:22;2.50;99.90
13976;DHT22;7062;49.792;9.946;2023-01-19T15:16:48;2.60;99.90
13976;DHT22;7062;49.792;9.946;2023-01-19T15:19:16;2.60;99.90
13976;DHT22;7062;49.792;9.946;2023-01-19T15:21:42;2.50;99.90
13976;DHT22;7062;49.792;9.946;2023-01-19T15:24:10;2.60;99.90
13976;DHT22;7062;49.792;9.946;2023-01-19T15:26:40;2.50;99.90
13976;DHT22;7062;49.792;9.946;2023-01-19T15:29:33;2.40;99.90
13976;DHT22;7062;49.792;9.946;2023-01-19T15:31:59;2.30;99.90
13976;DHT22;7062;49.792;9.946;2023-01-19T15:34:24;2.30;99.90
13976;DHT22;7062;49.792;9.946;2023-01-19T15:36:50;2.30;99.90
13976;DHT22;7062;49.792;9.946;2023-01-19T15:39:15;2.30;99.90
13976;DHT22;7062;49.792;9.946;2023-01-19T15:41:41;2.30;99.90
13976;DHT22;7062;49.792;9.946;2023-01-19T15:44:09;2.30;99.90
13976;DHT22;7062;49.792;9.946;2023-01-19T15:46:35;2.30;99.90
13976;DHT22;7062;49.792;9.946;2023-01-19T15:49:01;2.30;99.90
13976;DHT22;7062;49.792;9.946;2023-01-19T15:51:27;2.30;99.90
13976;DHT22;7062;49.792;9.946;2023-01-19T15:53:53;2.30;99.90
13976;DHT22;7062;49.792;9.946;2023-01-19T15:58:48;2.30;99.90
13976;DHT22;7062;49.792;9.946;2023-01-19T16:01:15;2.20;99.90
13976;DHT22;7062;49.792;9.946;2023-01-19T16:03:41;2.20;99.90
13976;DHT22;7062;49.792;9.946;2023-01-19T16:06:07;2.20;99.90
13976;DHT22;7062;49.792;9.946;2023-01-19T16:08:34;2.20;99.90
13976;DHT22;7062;49.792;9.946;2023-01-19T16:11:08;2.20;99.90
13976;DHT22;7062;49.792;9.946;2023-01-19T16:13:35;2.20;99.90
13976;DHT22;7062;49.792;9.946;2023-01-19T16:16:02;2.30;99.90
13976;DHT22;7062;49.792;9.946;2023-01-19T16:18:28;2.40;99.90
13976;DHT22;7062;49.792;9.946;2023-01-19T16:20:54;2.30;99.90
13976;DHT22;7062;49.792;9.946;2023-01-19T16:23:20;2.30;99.90
13976;DHT22;7062;49.792;9.946;2023-01-19T16:25:58;2.30;99.90
13976;DHT22;7062;49.792;9.946;2023-01-19T16:28:25;2.30;99.90
13976;DHT22;7062;49.792;9.946;2023-01-19T16:30:51;2.30;99.90
13976;DHT22;7062;49.792;9.946;2023-01-19T16:33:17;2.40;99.90
13976;DHT22;7062;49.792;9.946;2023-01-19T16:35:43;2.50;99.90
13976;DHT22;7062;49.792;9.946;2023-01-19T16:38:09;2.40;99.90
13976;DHT22;7062;49.792;9.946;2023-01-19T16:40:35;2.40;99.90
13976;DHT22;7062;49.792;9.946;2023-01-19T16:43:00;2.40;99.90
13976;DHT22;7062;49.792;9.946;2023-01-19T16:45:26;2.40;99.90
13976;DHT22;7062;49.792;9.946;2023-01-19T16:47:51;2.40;99.90
13976;DHT22;7062;49.792;9.946;2023-01-19T16:50:17;2.40;99.90
13976;DHT22;7062;49.792;9.946;2023-01-19T16:52:43;2.30;99.90
13976;DHT22;7062;49.792;9.946;2023-01-19T16:55:09;2.30;99.90
13976;DHT22;7062;49.792;9.946;2023-01-19T16:57:38;2.20;99.90
13976;DHT22;7062;49.792;9.946;2023-01-19T17:00:05;2.20;99.90
13976;DHT22;7062;49.792;9.946;2023-01-19T17:02:31;2.30;99.90
13976;DHT22;7062;49.792;9.946;2023-01-19T17:04:57;2.40;99.90
13976;DHT22;7062;49.792;9.946;2023-01-19T17:07:25;2.30;99.90
13976;DHT22;7062;49.792;9.946;2023-01-19T17:09:51;2.30;99.90
13976;DHT22;7062;49.792;9.946;2023-01-19T17:12:16;2.30;99.90
13976;DHT22;7062;49.792;9.946;2023-01-19T17:14:42;2.40;99.90
13976;DHT22;7062;49.792;9.946;2023-01-19T17:17:08;2.40;99.90
13976;DHT22;7062;49.792;9.946;2023-01-19T17:19:34;2.40;99.90
13976;DHT22;7062;49.792;9.946;2023-01-19T17:22:00;2.50;99.90
13976;DHT22;7062;49.792;9.946;2023-01-19T17:24:25;2.50;99.90
13976;DHT22;7062;49.792;9.946;2023-01-19T17:26:51;2.60;99.90
13976;DHT22;7062;49.792;9.946;2023-01-19T17:29:17;2.60;99.90
13976;DHT22;7062;49.792;9.946;2023-01-19T17:31:42;2.60;99.90
13976;DHT22;7062;49.792;9.946;2023-01-19T17:34:09;2.70;99.90